TimeCDT,TemperatureF,Dew PointF,Humidity,Sea Level PressureIn,VisibilityMPH,Wind Direction,Wind SpeedMPH,Gust SpeedMPH,PrecipitationIn,Events,Conditions,WindDirDegrees,DateUTC
12:15 AM,59.0,46.4,63,29.88,10.0,SSE,11.5,-,N/A,,Clear,150,2013-10-11 05:15:00
12:35 AM,59.0,46.4,63,29.89,10.0,SSE,10.4,-,N/A,,Clear,150,2013-10-11 05:35:00
12:55 AM,57.2,46.4,67,29.89,10.0,SSE,10.4,-,N/A,,Clear,150,2013-10-11 05:55:00
1:15 AM,55.4,46.4,72,29.89,10.0,SE,9.2,-,N/A,,Clear,140,2013-10-11 06:15:00
1:55 AM,55.4,48.2,77,29.89,10.0,SSE,9.2,-,N/A,,Clear,150,2013-10-11 06:55:00
2:15 AM,55.4,48.2,77,29.89,10.0,SSE,9.2,-,N/A,,Clear,150,2013-10-11 07:15:00
2:35 AM,55.4,48.2,77,29.88,10.0,SE,10.4,-,N/A,,Clear,140,2013-10-11 07:35:00
2:55 AM,55.4,48.2,77,29.88,10.0,SE,9.2,-,N/A,,Clear,140,2013-10-11 07:55:00
3:15 AM,55.4,48.2,77,29.87,10.0,SE,9.2,-,N/A,,Clear,140,2013-10-11 08:15:00
3:35 AM,53.6,48.2,82,29.87,10.0,SSE,8.1,-,N/A,,Clear,150,2013-10-11 08:35:00
3:55 AM,53.6,48.2,82,29.88,10.0,SE,6.9,-,N/A,,Clear,140,2013-10-11 08:55:00
4:15 AM,53.6,48.2,82,29.88,10.0,SE,5.8,-,N/A,,Clear,140,2013-10-11 09:15:00
4:35 AM,51.8,48.2,88,29.88,10.0,SE,6.9,-,N/A,,Clear,140,2013-10-11 09:35:00
4:55 AM,51.8,50.0,94,29.88,10.0,SE,6.9,-,N/A,,Clear,130,2013-10-11 09:55:00
5:15 AM,51.8,50.0,94,29.88,10.0,SE,6.9,-,N/A,,Clear,130,2013-10-11 10:15:00
5:35 AM,51.8,50.0,94,29.87,10.0,SE,8.1,-,N/A,,Clear,140,2013-10-11 10:35:00
5:55 AM,53.6,50.0,88,29.87,10.0,SE,10.4,-,N/A,,Clear,140,2013-10-11 10:55:00
6:15 AM,53.6,50.0,88,29.86,10.0,SE,11.5,-,N/A,,Clear,140,2013-10-11 11:15:00
6:35 AM,53.6,50.0,88,29.85,10.0,SE,11.5,-,N/A,,Clear,140,2013-10-11 11:35:00
6:55 AM,53.6,50.0,88,29.85,10.0,SE,12.7,-,N/A,,Clear,140,2013-10-11 11:55:00
7:15 AM,53.6,50.0,88,29.84,10.0,SE,15.0,-,N/A,,Clear,130,2013-10-11 12:15:00
7:35 AM,53.6,50.0,88,29.83,10.0,SE,13.8,19.6,N/A,,Clear,130,2013-10-11 12:35:00
7:55 AM,53.6,50.0,88,29.83,10.0,SE,16.1,-,N/A,,Clear,140,2013-10-11 12:55:00
8:15 AM,55.4,50.0,82,29.82,10.0,SE,13.8,-,N/A,,Clear,140,2013-10-11 13:15:00
8:35 AM,55.4,50.0,82,29.81,10.0,SE,17.3,24.2,N/A,,Clear,130,2013-10-11 13:35:00
8:55 AM,59.0,51.8,77,29.80,10.0,SE,16.1,24.2,N/A,,Clear,130,2013-10-11 13:55:00
9:15 AM,59.0,51.8,77,29.81,10.0,SE,15.0,20.7,N/A,,Clear,140,2013-10-11 14:15:00
9:35 AM,60.8,51.8,72,29.81,10.0,SSE,13.8,25.3,N/A,,Clear,150,2013-10-11 14:35:00
9:55 AM,62.6,51.8,68,29.80,10.0,SSE,19.6,25.3,N/A,,Clear,150,2013-10-11 14:55:00
10:15 AM,64.4,53.6,68,29.80,10.0,SE,18.4,23.0,N/A,,Clear,140,2013-10-11 15:15:00
10:35 AM,64.4,51.8,64,29.79,10.0,SE,20.7,25.3,N/A,,Clear,140,2013-10-11 15:35:00
10:55 AM,64.4,53.6,68,29.78,10.0,SE,15.0,25.3,N/A,,Clear,130,2013-10-11 15:55:00
11:15 AM,66.2,53.6,64,29.77,10.0,SE,18.4,25.3,N/A,,Clear,140,2013-10-11 16:15:00
11:35 AM,68.0,53.6,60,29.76,10.0,SE,21.9,33.4,N/A,,Clear,140,2013-10-11 16:35:00
11:55 AM,69.8,53.6,56,29.76,10.0,SE,20.7,33.4,N/A,,Clear,140,2013-10-11 16:55:00
12:15 PM,68.0,51.8,56,29.75,10.0,SE,20.7,31.1,N/A,,Scattered Clouds,140,2013-10-11 17:15:00
12:35 PM,68.0,51.8,56,29.74,10.0,SE,18.4,28.8,N/A,,Mostly Cloudy,130,2013-10-11 17:35:00
12:55 PM,68.0,51.8,56,29.75,10.0,SSE,16.1,31.1,N/A,Rain,Light Rain,150,2013-10-11 17:55:00
1:15 PM,68.0,53.6,60,29.73,10.0,SE,19.6,26.5,N/A,,Overcast,140,2013-10-11 18:15:00
1:35 PM,69.8,53.6,56,29.72,10.0,SSE,23.0,29.9,N/A,,Overcast,150,2013-10-11 18:35:00
1:55 PM,69.8,53.6,56,29.71,10.0,SSE,23.0,34.5,N/A,,Overcast,150,2013-10-11 18:55:00
2:15 PM,69.8,53.6,56,29.71,10.0,SSE,23.0,33.4,N/A,,Overcast,160,2013-10-11 19:15:00
2:35 PM,71.6,53.6,53,29.69,10.0,SSE,21.9,31.1,N/A,,Overcast,160,2013-10-11 19:35:00
2:55 PM,71.6,53.6,53,29.68,10.0,SSE,21.9,32.2,N/A,,Overcast,150,2013-10-11 19:55:00
3:15 PM,71.6,53.6,53,29.67,10.0,SSE,26.5,35.7,N/A,,Overcast,160,2013-10-11 20:15:00
3:35 PM,71.6,53.6,53,29.68,10.0,SSE,24.2,31.1,N/A,,Overcast,150,2013-10-11 20:35:00
3:55 PM,71.6,53.6,53,29.68,10.0,SSE,20.7,34.5,N/A,,Overcast,160,2013-10-11 20:55:00
4:15 PM,71.6,55.4,57,29.70,10.0,South,21.9,32.2,N/A,,Overcast,180,2013-10-11 21:15:00
4:35 PM,71.6,55.4,57,29.70,10.0,South,20.7,28.8,N/A,,Overcast,180,2013-10-11 21:35:00
4:55 PM,69.8,55.4,60,29.71,10.0,South,17.3,25.3,N/A,,Overcast,180,2013-10-11 21:55:00
5:15 PM,68.0,59.0,73,29.71,4.0,South,20.7,26.5,0.01,Rain,Rain,170,2013-10-11 22:15:00
5:35 PM,64.4,60.8,88,29.71,10.0,South,16.1,24.2,0.01,Rain,Light Rain,170,2013-10-11 22:35:00
5:55 PM,66.2,60.8,83,29.72,10.0,South,13.8,20.7,0.01,,Scattered Clouds,180,2013-10-11 22:55:00
6:15 PM,64.4,60.8,88,29.72,10.0,South,12.7,16.1,N/A,,Scattered Clouds,170,2013-10-11 23:15:00
6:35 PM,64.4,60.8,88,29.72,10.0,South,11.5,20.7,N/A,,Clear,170,2013-10-11 23:35:00
6:55 PM,64.4,60.8,88,29.72,10.0,SSE,11.5,18.4,N/A,,Clear,160,2013-10-11 23:55:00
7:15 PM,64.4,60.8,88,29.72,10.0,SSE,11.5,-,N/A,,Clear,160,2013-10-12 00:15:00
7:35 PM,64.4,59.0,83,29.73,10.0,SSE,16.1,-,N/A,,Clear,160,2013-10-12 00:35:00
7:55 PM,64.4,59.0,83,29.73,10.0,South,15.0,19.6,N/A,,Clear,170,2013-10-12 00:55:00
8:15 PM,64.4,59.0,83,29.73,10.0,South,15.0,20.7,N/A,,Clear,170,2013-10-12 01:15:00
8:35 PM,64.4,59.0,83,29.73,10.0,South,13.8,17.3,N/A,,Clear,170,2013-10-12 01:35:00
8:55 PM,64.4,59.0,83,29.73,10.0,South,11.5,-,N/A,,Clear,170,2013-10-12 01:55:00
9:15 PM,64.4,59.0,83,29.73,10.0,South,16.1,20.7,N/A,,Clear,170,2013-10-12 02:15:00
9:35 PM,64.4,59.0,83,29.73,10.0,South,16.1,23.0,N/A,,Clear,170,2013-10-12 02:35:00
9:55 PM,64.4,59.0,83,29.72,10.0,South,15.0,23.0,N/A,,Clear,170,2013-10-12 02:55:00
10:15 PM,64.4,59.0,83,29.72,10.0,South,16.1,20.7,N/A,,Clear,170,2013-10-12 03:15:00
10:35 PM,64.4,60.8,88,29.74,10.0,South,12.7,19.6,N/A,,Scattered Clouds,190,2013-10-12 03:35:00
10:55 PM,64.4,60.8,88,29.77,7.0,WSW,10.4,-,0.05,Rain,Heavy Rain,250,2013-10-12 03:55:00
11:15 PM,60.8,50.0,68,29.78,10.0,West,10.4,17.3,N/A,,Overcast,270,2013-10-12 04:15:00
11:35 PM,59.0,46.4,63,29.79,10.0,West,10.4,16.1,N/A,,Overcast,270,2013-10-12 04:35:00
11:55 PM,57.2,46.4,67,29.81,10.0,West,8.1,-,N/A,,Mostly Cloudy,270,2013-10-12 04:55:00